Time;durP1;ratioP1;P1;durP2;ratioP2;P2;SDS_P1;SDS_P2;PMS_P1;PMS_P2;Temp;Humidity;BMP_temperature;BMP_pressure;BME280_temperature;BME280_humidity;BME280_pressure;Samples;Min_cycle;Max_cycle;Signal;HPM_P1;HPM_P2
2022/02/11 00:06:15;;;;;;;2.25;0.90;;;22.70;46.40;;;;;;5002273;28;20030;-70
2022/02/11 00:08:39;;;;;;;1.17;0.80;;;22.60;46.30;;;;;;4998935;28;20042;-69
2022/02/11 00:11:05;;;;;;;1.48;1.00;;;22.60;46.40;;;;;;5015455;28;20042;-68
2022/02/11 00:13:31;;;;;;;1.50;0.90;;;22.60;46.40;;;;;;4999919;28;20030;-68
2022/02/11 00:15:56;;;;;;;1.88;1.00;;;22.60;46.40;;;;;;4998508;28;20113;-70
2022/02/11 00:18:22;;;;;;;2.17;0.90;;;22.60;46.40;;;;;;5005000;28;20478;-70
2022/02/11 00:20:52;;;;;;;1.17;0.85;;;22.60;46.40;;;;;;4998645;28;20022;-69
2022/02/11 00:23:20;;;;;;;1.50;0.93;;;22.60;46.40;;;;;;5000312;28;20053;-69
2022/02/11 00:26:20;;;;;;;2.13;1.30;;;22.60;46.40;;;;;;5000319;28;20054;-69
2022/02/11 00:29:31;;;;;;;1.85;1.10;;;22.60;46.40;;;;;;4998362;28;20041;-69
2022/02/11 00:34:09;;;;;;;1.90;1.10;;;22.50;46.40;;;;;;4999487;28;20232;-68
2022/02/11 00:36:43;;;;;;;1.15;0.90;;;22.50;46.50;;;;;;4999538;28;20148;-68
2022/02/11 00:39:35;;;;;;;1.38;0.90;;;22.50;46.50;;;;;;4998249;28;20062;-66
2022/02/11 01:06:03;;;;;;;1.40;0.90;;;22.40;46.60;;;;;;5001133;28;20041;-70
2022/02/11 01:08:29;;;;;;;1.48;0.90;;;22.40;46.60;;;;;;4999134;28;20022;-69
2022/02/11 01:10:54;;;;;;;0.95;0.85;;;22.30;46.60;;;;;;4998311;28;20449;-69
2022/02/11 01:13:20;;;;;;;1.83;0.90;;;22.30;46.60;;;;;;4998168;28;20038;-69
2022/02/11 01:15:54;;;;;;;1.00;0.80;;;22.30;46.60;;;;;;4998151;28;20078;-68
2022/02/11 01:18:20;;;;;;;1.20;0.73;;;22.30;46.70;;;;;;4997899;28;20037;-67
2022/02/11 01:26:20;;;;;;;1.10;0.90;;;22.30;46.70;;;;;;4999042;28;20084;-70
2022/02/11 01:34:50;;;;;;;1.42;0.90;;;22.20;47.20;;;;;;4997595;28;20032;-69
2022/02/11 01:37:23;;;;;;;1.23;0.82;;;22.20;46.70;;;;;;4998679;28;20471;-69
2022/02/11 02:14:13;;;;;;;1.48;0.80;;;22.00;46.80;;;;;;4996662;28;20176;-68
2022/02/11 02:22:52;;;;;;;1.58;0.90;;;22.00;46.80;;;;;;4995033;28;20033;-69
2022/02/11 02:57:32;;;;;;;1.50;1.00;;;21.90;47.00;;;;;;4994875;28;20087;-70
2022/02/11 03:35:24;;;;;;;0.90;0.77;;;21.70;47.00;;;;;;4995971;28;20028;-68
2022/02/11 03:49:00;;;;;;;0.80;0.75;;;21.70;47.10;;;;;;4994737;28;20160;-68
2022/02/11 04:26:52;;;;;;;0.90;0.70;;;21.70;47.20;;;;;;4994508;28;20502;-71
2022/02/11 04:55:53;;;;;;;1.48;1.10;;;21.60;47.20;;;;;;4999134;28;20045;-71
2022/02/11 05:01:03;;;;;;;0.95;0.80;;;21.60;47.20;;;;;;4996727;28;20050;-69
2022/02/11 05:03:29;;;;;;;1.05;0.77;;;21.60;47.20;;;;;;4999075;28;20398;-69
2022/02/11 05:05:54;;;;;;;1.10;0.80;;;21.60;47.20;;;;;;4998768;28;20033;-68
2022/02/11 05:08:24;;;;;;;1.88;0.80;;;21.60;47.20;;;;;;5003812;28;20037;-70
2022/02/11 05:10:53;;;;;;;1.15;0.80;;;21.60;47.20;;;;;;5011141;28;20032;-68
2022/02/11 05:13:20;;;;;;;1.33;0.90;;;21.60;47.20;;;;;;4998134;28;20036;-70
2022/02/11 05:15:46;;;;;;;1.00;0.80;;;21.60;47.20;;;;;;5010170;28;20049;-69
2022/02/11 05:18:12;;;;;;;0.60;0.60;;;21.60;47.20;;;;;;4997263;28;20084;-70
2022/02/11 05:20:38;;;;;;;1.48;0.80;;;21.60;47.30;;;;;;4997360;28;20065;-69
2022/02/11 05:23:08;;;;;;;1.13;0.90;;;21.60;47.30;;;;;;5000105;28;20038;-69
2022/02/11 05:25:33;;;;;;;;;;;21.60;47.30;;;;;;5013397;28;20367;-67
2022/02/11 05:27:59;;;;;;;1.10;0.80;;;21.60;47.30;;;;;;5011850;28;19924;-68
2022/02/11 05:30:25;;;;;;;0.80;0.63;;;21.60;47.30;;;;;;4997341;28;20058;-69
2022/02/11 05:32:50;;;;;;;1.40;0.85;;;21.50;47.30;;;;;;4999586;28;20026;-70
2022/02/11 05:35:16;;;;;;;1.27;0.90;;;21.50;47.30;;;;;;4997673;28;20103;-70
2022/02/11 05:37:42;;;;;;;1.38;0.90;;;21.60;47.30;;;;;;4999233;28;20034;-68
2022/02/11 05:40:08;;;;;;;1.20;0.73;;;21.60;47.40;;;;;;4999187;28;20113;-68
2022/02/11 05:42:33;;;;;;;1.85;1.00;;;21.50;47.30;;;;;;4999162;28;20041;-68
2022/02/11 05:44:59;;;;;;;0.82;0.80;;;21.50;47.40;;;;;;4999108;28;20034;-68
2022/02/11 05:47:24;;;;;;;1.30;0.90;;;21.50;47.40;;;;;;4996849;28;20164;-68
2022/02/11 05:49:50;;;;;;;0.90;0.80;;;21.50;47.40;;;;;;4996107;28;20034;-67
2022/02/11 05:52:15;;;;;;;1.17;0.80;;;21.50;47.40;;;;;;5013385;28;20084;-70
2022/02/11 05:54:41;;;;;;;1.00;0.73;;;21.50;47.40;;;;;;4997055;28;20454;-68
2022/02/11 05:57:07;;;;;;;0.95;0.80;;;21.50;47.40;;;;;;4995224;28;20029;-68
2022/02/11 05:59:33;;;;;;;0.98;0.75;;;21.50;47.40;;;;;;4996511;28;20237;-70
2022/02/11 06:01:58;;;;;;;1.13;0.80;;;21.50;47.50;;;;;;4993206;28;20462;-69
2022/02/11 06:04:24;;;;;;;0.93;0.60;;;21.50;47.40;;;;;;4995148;28;20095;-69
2022/02/11 06:06:52;;;;;;;1.30;0.90;;;21.50;47.50;;;;;;4996325;28;20051;-70
2022/02/11 06:09:18;;;;;;;1.10;0.80;;;21.50;47.50;;;;;;4995804;28;20600;-70
2022/02/11 06:11:45;;;;;;;1.13;0.80;;;21.40;47.40;;;;;;5000561;28;20606;-68
2022/02/11 06:14:11;;;;;;;1.20;0.80;;;21.50;47.50;;;;;;4995866;28;20458;-68
2022/02/11 06:16:36;;;;;;;1.10;0.85;;;21.50;47.50;;;;;;4994859;28;20121;-68
2022/02/11 06:19:02;;;;;;;1.00;0.75;;;21.50;48.00;;;;;;4995581;28;20100;-69
2022/02/11 06:21:28;;;;;;;1.13;0.75;;;21.50;47.50;;;;;;4997691;28;20538;-68
2022/02/11 06:23:55;;;;;;;0.88;0.65;;;21.50;47.50;;;;;;4997605;28;20057;-71
2022/02/11 06:26:24;;;;;;;1.10;0.77;;;21.50;47.50;;;;;;4995597;28;20235;-70
2022/02/11 06:28:50;;;;;;;1.10;0.70;;;21.50;47.50;;;;;;4997034;28;20059;-68
2022/02/11 06:31:17;;;;;;;1.23;0.80;;;21.50;47.50;;;;;;4995033;28;20045;-69
2022/02/11 06:33:43;;;;;;;1.27;0.77;;;21.40;47.50;;;;;;5011984;28;20513;-68
2022/02/11 06:36:08;;;;;;;1.00;0.77;;;21.50;47.60;;;;;;4997215;28;20023;-67
2022/02/11 06:38:34;;;;;;;0.82;0.70;;;21.50;47.60;;;;;;4995209;28;20033;-66
2022/02/11 06:41:00;;;;;;;1.25;0.70;;;21.40;47.60;;;;;;4993771;28;20069;-65
2022/02/11 06:43:26;;;;;;;1.25;0.90;;;21.50;48.30;;;;;;4998575;28;20132;-67
2022/02/11 06:45:52;;;;;;;1.00;0.82;;;21.60;48.70;;;;;;4998694;28;20516;-67
2022/02/11 06:48:21;;;;;;;1.75;0.90;;;21.70;48.60;;;;;;4996892;28;20030;-66
2022/02/11 06:50:47;;;;;;;1.08;0.80;;;21.90;48.30;;;;;;5001448;28;20388;-67
2022/02/11 06:53:14;;;;;;;1.80;0.90;;;22.10;48.10;;;;;;4997157;28;20042;-64
2022/02/11 06:55:40;;;;;;;1.20;0.80;;;22.30;47.80;;;;;;4999259;28;20105;-66
2022/02/11 06:58:06;;;;;;;1.67;0.90;;;22.40;47.70;;;;;;5014671;28;20709;-67
2022/02/11 07:00:32;;;;;;;1.15;0.80;;;22.50;47.50;;;;;;4997855;28;20050;-65
2022/02/11 07:02:57;;;;;;;1.15;0.80;;;22.60;47.30;;;;;;4998279;28;20109;-64
2022/02/11 07:05:25;;;;;;;1.02;0.70;;;22.70;47.10;;;;;;4997704;28;20090;-67
2022/02/11 07:07:51;;;;;;;1.30;0.70;;;22.80;46.90;;;;;;4997869;28;20046;-67
2022/02/11 07:10:16;;;;;;;1.77;0.80;;;22.90;46.40;;;;;;4996876;28;20680;-66
2022/02/11 07:12:42;;;;;;;0.80;0.60;;;22.90;46.30;;;;;;5000617;28;20029;-68
2022/02/11 07:15:08;;;;;;;0.70;0.70;;;22.80;46.30;;;;;;4997159;28;20032;-67
2022/02/11 07:17:34;;;;;;;0.85;0.60;;;22.80;46.40;;;;;;4996164;28;20180;-66
2022/02/11 07:20:01;;;;;;;0.88;0.68;;;22.80;46.60;;;;;;4997214;28;20141;-67
2022/02/11 07:22:34;;;;;;;0.80;0.70;;;22.70;46.50;;;;;;4997696;28;20510;-65
2022/02/11 07:25:01;;;;;;;0.98;0.60;;;22.70;46.50;;;;;;4998722;28;20024;-67
2022/02/11 07:27:26;;;;;;;0.90;0.65;;;22.70;46.60;;;;;;4997052;28;20573;-67
2022/02/11 07:29:52;;;;;;;0.88;0.60;;;22.70;46.60;;;;;;4993429;28;20108;-66
2022/02/11 07:32:17;;;;;;;0.70;0.60;;;22.70;47.20;;;;;;4995718;28;20132;-64
2022/02/11 07:34:45;;;;;;;0.52;0.52;;;22.70;47.00;;;;;;4995343;28;20332;-66
2022/02/11 07:37:11;;;;;;;1.27;0.70;;;22.70;46.80;;;;;;4995644;28;20018;-65
2022/02/11 07:39:36;;;;;;;0.63;0.60;;;22.70;47.00;;;;;;4995210;28;20252;-67
2022/02/11 07:42:02;;;;;;;1.00;0.70;;;22.70;47.00;;;;;;4995149;28;20049;-64
2022/02/11 07:44:28;;;;;;;1.00;0.80;;;22.70;46.90;;;;;;4994130;28;20246;-68
2022/02/11 07:46:53;;;;;;;0.80;0.70;;;22.80;47.30;;;;;;4994412;28;20034;-66
2022/02/11 07:49:19;;;;;;;0.70;0.60;;;22.80;47.00;;;;;;4994244;28;20018;-68
2022/02/11 07:51:44;;;;;;;0.68;0.68;;;22.80;47.00;;;;;;4996923;28;20473;-67
2022/02/11 07:54:10;;;;;;;1.10;0.73;;;22.80;47.50;;;;;;4997085;28;20034;-64
2022/02/11 07:56:36;;;;;;;1.75;0.70;;;22.80;47.10;;;;;;5001934;28;20086;-67
2022/02/11 07:59:01;;;;;;;0.80;0.70;;;22.90;47.10;;;;;;4996398;28;20029;-68
2022/02/11 08:01:27;;;;;;;0.88;0.70;;;22.90;47.00;;;;;;4994509;28;20862;-67
2022/02/11 08:03:52;;;;;;;1.25;0.68;;;22.90;46.90;;;;;;5008964;28;20034;-67
2022/02/11 08:06:18;;;;;;;0.90;0.70;;;22.90;46.80;;;;;;4996393;28;20030;-67
2022/02/11 08:08:44;;;;;;;1.02;0.70;;;22.90;46.80;;;;;;4995691;28;20037;-67
2022/02/11 08:11:10;;;;;;;1.13;0.70;;;22.90;46.80;;;;;;4995451;28;20044;-64
2022/02/11 08:13:36;;;;;;;0.60;0.50;;;22.90;46.90;;;;;;4994187;28;20064;-68
2022/02/11 08:16:04;;;;;;;0.70;0.60;;;23.00;46.80;;;;;;5008899;28;20395;-66
2022/02/11 08:18:29;;;;;;;0.60;0.60;;;23.00;46.60;;;;;;4995182;28;20475;-67
2022/02/11 08:20:55;;;;;;;0.80;0.65;;;23.00;46.80;;;;;;5013588;28;20027;-66
2022/02/11 08:23:21;;;;;;;1.23;0.70;;;23.00;46.80;;;;;;5000039;28;20041;-67
2022/02/11 08:25:46;;;;;;;1.15;0.70;;;23.00;46.80;;;;;;5000432;28;20034;-65
2022/02/11 08:28:12;;;;;;;1.15;0.80;;;23.00;46.80;;;;;;4999916;28;20030;-63
2022/02/11 08:30:38;;;;;;;1.20;0.70;;;23.00;46.80;;;;;;4994164;28;20038;-67
2022/02/11 08:33:04;;;;;;;1.20;0.70;;;23.00;46.80;;;;;;4998997;28;20030;-69
2022/02/11 08:35:30;;;;;;;0.90;0.65;;;23.00;46.60;;;;;;5002075;28;20042;-67
2022/02/11 08:37:56;;;;;;;1.00;0.70;;;23.10;46.60;;;;;;4999521;28;20061;-64
2022/02/11 08:40:21;;;;;;;0.85;0.68;;;23.10;46.60;;;;;;4997557;28;20041;-63
2022/02/11 08:42:48;;;;;;;0.85;0.57;;;23.10;46.60;;;;;;4998213;28;20450;-64
2022/02/11 08:45:14;;;;;;;0.60;0.60;;;23.10;46.70;;;;;;5001143;28;20018;-66
2022/02/11 08:47:40;;;;;;;0.50;0.50;;;23.10;46.70;;;;;;5000793;28;20038;-67
2022/02/11 08:50:07;;;;;;;0.98;0.70;;;23.10;46.70;;;;;;5000349;28;20052;-64
2022/02/11 08:52:33;;;;;;;0.90;0.70;;;23.10;46.70;;;;;;4998899;28;20121;-66
2022/02/11 08:54:58;;;;;;;0.95;0.70;;;23.10;46.70;;;;;;5001716;28;20091;-64
2022/02/11 08:57:24;;;;;;;2.03;0.93;;;23.20;46.80;;;;;;4999039;28;20022;-66
2022/02/11 08:59:50;;;;;;;0.98;0.70;;;23.10;46.80;;;;;;4995921;28;20616;-67
2022/02/11 09:02:17;;;;;;;0.90;0.60;;;23.20;46.80;;;;;;4995932;28;20069;-68
2022/02/11 09:04:42;;;;;;;0.60;0.57;;;23.20;46.70;;;;;;4999818;28;20076;-67
2022/02/11 09:07:08;;;;;;;1.08;0.60;;;23.20;46.70;;;;;;5000460;28;20045;-67
2022/02/11 09:09:34;;;;;;;0.60;0.60;;;23.20;46.70;;;;;;5000922;28;20027;-68
2022/02/11 09:12:00;;;;;;;0.40;0.40;;;23.20;46.70;;;;;;4998999;28;20022;-68
2022/02/11 09:14:25;;;;;;;0.52;0.52;;;23.20;46.60;;;;;;4999947;28;20080;-67
2022/02/11 09:16:51;;;;;;;0.60;0.60;;;23.20;46.70;;;;;;5003323;28;20433;-67
2022/02/11 09:19:17;;;;;;;0.57;0.57;;;23.20;46.70;;;;;;5005897;28;20058;-67
2022/02/11 09:21:43;;;;;;;0.85;0.60;;;23.20;46.80;;;;;;4995473;28;20018;-66
2022/02/11 09:24:09;;;;;;;1.20;0.60;;;23.20;46.70;;;;;;5000101;28;20029;-65
2022/02/11 09:26:35;;;;;;;0.82;0.63;;;23.30;46.70;;;;;;5003673;28;20033;-67
2022/02/11 09:29:02;;;;;;;0.55;0.40;;;23.20;46.60;;;;;;4996178;28;20026;-65
2022/02/11 09:31:28;;;;;;;0.40;0.40;;;23.20;47.00;;;;;;4995496;28;20391;-68
2022/02/11 09:33:55;;;;;;;0.50;0.50;;;23.30;46.90;;;;;;4998620;28;20030;-66
2022/02/11 09:36:22;;;;;;;0.63;0.60;;;23.30;47.30;;;;;;4998540;28;20034;-67
2022/02/11 09:38:48;;;;;;;1.15;0.60;;;23.40;47.00;;;;;;4997498;28;20037;-68
2022/02/11 09:41:15;;;;;;;0.60;0.50;;;23.40;47.30;;;;;;4996260;28;20080;-66
2022/02/11 09:43:41;;;;;;;0.80;0.60;;;23.40;47.70;;;;;;4996469;28;20029;-66
2022/02/11 09:46:08;;;;;;;0.63;0.60;;;23.40;48.10;;;;;;5010164;28;20030;-67
2022/02/11 09:48:34;;;;;;;0.68;0.60;;;23.50;48.10;;;;;;4997535;28;20108;-65
2022/02/11 09:51:00;;;;;;;0.55;0.50;;;23.50;48.60;;;;;;4998544;28;20033;-64
2022/02/11 09:53:27;;;;;;;0.60;0.60;;;23.60;48.80;;;;;;4999257;28;20389;-63
2022/02/11 09:55:53;;;;;;;0.60;0.50;;;23.60;48.80;;;;;;4998100;28;20328;-67
2022/02/11 09:58:19;;;;;;;1.00;0.55;;;23.60;49.00;;;;;;4998166;28;20563;-67
2022/02/11 10:00:48;;;;;;;0.40;0.40;;;23.70;49.00;;;;;;5001602;28;20148;-68
2022/02/11 10:03:31;;;;;;;0.90;0.60;;;23.70;49.00;;;;;;4998290;28;20034;-67
2022/02/11 10:05:59;;;;;;;0.47;0.47;;;23.70;49.10;;;;;;4999799;28;20026;-65
2022/02/11 10:08:27;;;;;;;0.45;0.45;;;23.70;49.10;;;;;;4998989;28;20029;-67
2022/02/11 10:10:55;;;;;;;0.47;0.40;;;23.80;49.20;;;;;;4995738;28;20032;-66
2022/02/11 10:13:25;;;;;;;0.73;0.50;;;23.80;49.40;;;;;;4996089;28;20026;-65
2022/02/11 10:15:54;;;;;;;;;;;23.80;49.50;;;;;;4995154;28;20045;-66
2022/02/11 10:18:25;;;;;;;0.50;0.50;;;23.90;49.50;;;;;;4990885;28;20275;-67
2022/02/11 10:20:53;;;;;;;0.82;0.43;;;23.90;49.40;;;;;;4995309;28;20049;-67
2022/02/11 10:23:25;;;;;;;0.55;0.50;;;23.90;49.50;;;;;;4997879;28;20474;-67
2022/02/11 10:26:13;;;;;;;0.40;0.40;;;23.90;49.50;;;;;;4997935;28;20601;-66
2022/02/11 10:28:45;;;;;;;0.40;0.40;;;24.00;49.60;;;;;;5008148;28;20327;-66
2022/02/11 10:31:30;;;;;;;0.50;0.50;;;24.10;49.60;;;;;;4996021;28;20030;-67
2022/02/11 10:34:08;;;;;;;1.20;0.50;;;24.10;49.60;;;;;;4996326;28;20030;-65
2022/02/11 10:36:43;;;;;;;0.50;0.50;;;24.10;49.60;;;;;;4994565;28;20148;-68
2022/02/11 10:39:23;;;;;;;0.45;0.45;;;24.20;49.70;;;;;;4996873;28;20030;-66
2022/02/11 10:41:54;;;;;;;;;;;24.20;49.70;;;;;;5011086;28;20140;-66
2022/02/11 10:44:25;;;;;;;0.50;0.50;;;24.20;49.70;;;;;;4993811;28;19917;-67
2022/02/11 10:46:53;;;;;;;0.50;0.50;;;24.30;49.80;;;;;;4993365;28;20022;-67
2022/02/11 10:49:30;;;;;;;0.40;0.40;;;24.30;49.90;;;;;;4995834;28;20038;-66
2022/02/11 10:52:07;;;;;;;0.40;0.40;;;24.30;49.90;;;;;;4993412;28;20026;-66
2022/02/11 10:54:35;;;;;;;0.50;0.50;;;24.30;49.80;;;;;;5004532;28;20060;-66
2022/02/11 10:57:04;;;;;;;0.53;0.43;;;24.40;50.00;;;;;;4993801;28;20125;-66
2022/02/11 10:59:34;;;;;;;1.00;0.57;;;24.40;50.00;;;;;;4990628;28;20034;-67
2022/02/11 11:02:05;;;;;;;0.40;0.40;;;24.40;50.10;;;;;;4993363;28;20350;-68
2022/02/11 11:04:30;;;;;;;1.67;0.70;;;24.50;49.10;;;;;;4991998;28;20127;-68
2022/02/11 11:06:57;;;;;;;0.77;0.60;;;24.40;46.30;;;;;;4992960;28;20036;-65
2022/02/11 11:09:25;;;;;;;1.38;0.77;;;24.40;45.30;;;;;;4992672;28;20751;-68
2022/02/11 11:11:53;;;;;;;0.88;0.65;;;24.30;44.80;;;;;;4993636;28;20495;-68
2022/02/11 11:14:20;;;;;;;1.27;0.70;;;24.30;45.00;;;;;;4989934;28;20037;-66
2022/02/11 11:16:48;;;;;;;1.20;0.70;;;24.20;45.00;;;;;;4994095;28;20022;-67
2022/02/11 11:19:15;;;;;;;0.95;0.68;;;24.20;44.90;;;;;;5009781;28;20064;-68
2022/02/11 11:21:47;;;;;;;0.73;0.60;;;24.20;44.70;;;;;;4999999;28;20641;-65
2022/02/11 11:24:13;;;;;;;1.35;0.80;;;24.20;44.70;;;;;;4993974;28;20113;-68
2022/02/11 11:26:42;;;;;;;0.93;0.65;;;24.20;44.60;;;;;;5000720;28;20509;-68
2022/02/11 11:29:18;;;;;;;1.15;0.70;;;24.20;44.70;;;;;;5011519;28;20038;-67
2022/02/11 11:32:00;;;;;;;2.60;0.60;;;24.20;44.50;;;;;;5001846;28;20054;-67
2022/02/11 11:34:33;;;;;;;1.25;0.80;;;24.10;44.60;;;;;;4984507;28;20099;-65
2022/02/11 11:37:11;;;;;;;0.63;0.50;;;24.10;44.70;;;;;;4987310;28;20109;-68
2022/02/11 11:39:40;;;;;;;0.75;0.57;;;24.10;44.60;;;;;;4989107;28;20046;-66
2022/02/11 11:42:10;;;;;;;1.08;0.70;;;24.10;44.70;;;;;;4993305;28;20037;-67
2022/02/11 11:44:52;;;;;;;0.80;0.70;;;24.10;44.70;;;;;;4988271;28;20054;-67
2022/02/11 11:47:25;;;;;;;0.70;0.60;;;24.10;44.70;;;;;;4990820;28;20053;-67
2022/02/11 11:49:51;;;;;;;1.48;0.80;;;24.10;44.70;;;;;;4988988;28;20030;-67
2022/02/11 11:52:16;;;;;;;1.20;0.70;;;24.10;44.70;;;;;;4994111;28;20034;-68
2022/02/11 11:54:42;;;;;;;2.17;1.15;;;24.10;44.80;;;;;;4994608;28;20089;-68
2022/02/11 11:57:09;;;;;;;1.15;0.80;;;24.10;44.80;;;;;;4997768;28;20744;-67
2022/02/11 11:59:47;;;;;;;0.90;0.65;;;24.10;44.80;;;;;;4993145;28;20037;-66
2022/02/11 12:02:19;;;;;;;1.30;0.70;;;24.10;44.90;;;;;;4997005;28;20169;-66
2022/02/11 12:04:44;;;;;;;0.73;0.68;;;24.10;44.90;;;;;;4995982;28;20030;-68
2022/02/11 12:07:24;;;;;;;1.27;0.75;;;24.10;44.80;;;;;;4997417;28;20027;-67
2022/02/11 12:09:55;;;;;;;3.78;1.00;;;24.10;44.90;;;;;;4998698;28;20116;-67
2022/02/11 12:12:26;;;;;;;1.10;0.70;;;24.10;44.80;;;;;;4996353;28;20057;-66
2022/02/11 12:14:54;;;;;;;0.90;0.65;;;24.10;44.90;;;;;;4996174;28;20018;-64
2022/02/11 12:17:21;;;;;;;1.30;0.80;;;24.10;44.90;;;;;;4996583;28;20109;-64
2022/02/11 12:19:47;;;;;;;1.50;0.90;;;24.00;44.80;;;;;;4991450;28;20057;-66
2022/02/11 12:22:15;;;;;;;1.15;0.60;;;24.00;44.90;;;;;;4995547;28;20129;-67
2022/02/11 12:27:35;;;;;;;0.95;0.68;;;24.00;44.70;;;;;;4994192;28;20094;-67
2022/02/11 12:30:14;;;;;;;1.10;0.70;;;24.00;44.60;;;;;;4996376;28;20449;-67
2022/02/11 12:32:43;;;;;;;1.67;0.82;;;24.00;44.60;;;;;;4996761;28;20038;-67
2022/02/11 12:35:10;;;;;;;0.63;0.60;;;24.00;44.40;;;;;;4996544;28;20028;-66
2022/02/11 12:37:39;;;;;;;0.93;0.75;;;24.00;44.50;;;;;;4995114;28;20414;-68
2022/02/11 12:40:28;;;;;;;1.30;0.70;;;24.00;44.50;;;;;;5010841;28;20026;-67
2022/02/11 12:43:00;;;;;;;1.05;0.60;;;24.00;44.50;;;;;;4996600;28;20034;-69
2022/02/11 12:45:32;;;;;;;0.98;0.70;;;24.00;44.50;;;;;;5007671;28;20030;-68
2022/02/11 12:47:59;;;;;;;1.38;0.70;;;23.90;44.50;;;;;;5008991;28;20079;-64
2022/02/11 12:50:34;;;;;;;1.73;0.80;;;24.00;44.50;;;;;;5009583;28;20026;-68
2022/02/11 12:53:02;;;;;;;2.22;0.80;;;23.90;44.50;;;;;;5002159;28;20025;-66
2022/02/11 12:55:30;;;;;;;1.88;0.80;;;23.90;44.50;;;;;;4994226;28;20110;-67
2022/02/11 12:57:58;;;;;;;0.80;0.50;;;24.00;44.70;;;;;;4994207;28;20054;-67
2022/02/11 13:00:29;;;;;;;1.52;0.80;;;24.00;44.70;;;;;;4992903;28;20077;-69
2022/02/11 13:03:01;;;;;;;1.83;1.00;;;24.00;44.70;;;;;;4997018;28;20026;-69
2022/02/11 13:05:39;;;;;;;0.93;0.60;;;24.00;44.60;;;;;;4996105;28;20076;-67
2022/02/11 13:08:07;;;;;;;0.90;0.60;;;24.00;44.60;;;;;;4994264;28;20026;-68
2022/02/11 13:10:35;;;;;;;1.42;0.70;;;24.00;44.60;;;;;;4988114;28;20033;-68
2022/02/11 13:13:21;;;;;;;1.23;0.70;;;23.90;44.50;;;;;;4993561;28;20112;-67
2022/02/11 13:15:47;;;;;;;1.10;0.60;;;24.00;44.60;;;;;;4992763;28;20400;-66
2022/02/11 13:18:18;;;;;;;1.10;0.60;;;23.90;44.60;;;;;;4989793;28;20092;-66
2022/02/11 13:20:58;;;;;;;1.23;0.70;;;23.90;44.60;;;;;;4990314;28;20371;-66
2022/02/11 13:23:25;;;;;;;1.02;0.70;;;23.90;44.60;;;;;;4990892;28;20034;-67
2022/02/11 13:25:53;;;;;;;1.08;0.60;;;23.90;44.60;;;;;;5011538;28;20049;-68
2022/02/11 13:28:20;;;;;;;0.80;0.70;;;24.00;44.70;;;;;;4995320;28;20096;-68
2022/02/11 13:30:53;;;;;;;1.05;0.60;;;24.00;44.60;;;;;;4993016;28;20074;-69
2022/02/11 13:33:22;;;;;;;1.90;0.70;;;24.00;44.70;;;;;;5008859;28;20030;-70
2022/02/11 13:35:49;;;;;;;1.17;0.70;;;24.00;44.70;;;;;;4994891;28;20125;-68
2022/02/11 13:38:31;;;;;;;1.08;0.70;;;24.00;44.60;;;;;;4992895;28;20121;-67
2022/02/11 13:41:07;;;;;;;1.15;0.70;;;24.00;44.60;;;;;;4993046;28;20048;-68
2022/02/11 13:43:47;;;;;;;1.50;0.68;;;24.00;44.60;;;;;;4990433;28;20021;-67
2022/02/11 13:46:22;;;;;;;;;;;24.00;44.60;;;;;;4994763;28;20017;-67
2022/02/11 13:48:56;;;;;;;1.08;0.70;;;24.00;44.60;;;;;;4997646;28;19920;-66
2022/02/11 13:51:22;;;;;;;2.08;0.80;;;24.00;44.70;;;;;;4994954;28;20335;-69
2022/02/11 13:53:52;;;;;;;0.88;0.70;;;24.00;44.70;;;;;;4992475;28;20516;-68
2022/02/11 13:56:35;;;;;;;1.25;0.70;;;23.90;44.70;;;;;;4993485;28;20472;-67
2022/02/11 13:59:12;;;;;;;1.33;0.70;;;23.90;44.70;;;;;;4991093;28;20049;-69
2022/02/11 14:01:46;;;;;;;0.73;0.60;;;23.90;44.70;;;;;;4993298;28;20136;-69
2022/02/11 14:04:16;;;;;;;1.00;0.70;;;23.90;44.70;;;;;;4995474;28;20073;-67
2022/02/11 14:06:58;;;;;;;0.82;0.60;;;23.90;44.70;;;;;;4997533;28;20030;-69
2022/02/11 14:09:35;;;;;;;2.47;0.70;;;23.90;44.70;;;;;;4992760;28;20080;-66
2022/02/11 14:12:01;;;;;;;1.17;0.70;;;23.90;44.70;;;;;;4991270;28;20052;-69
2022/02/11 14:14:29;;;;;;;1.05;0.70;;;23.90;44.70;;;;;;4990979;28;20033;-69
2022/02/11 14:16:58;;;;;;;2.00;0.57;;;23.80;44.70;;;;;;4989199;28;20041;-69
2022/02/11 14:19:24;;;;;;;0.65;0.50;;;23.80;44.80;;;;;;4993232;28;20027;-69
2022/02/11 14:21:51;;;;;;;1.75;0.70;;;23.80;44.80;;;;;;4994223;28;20850;-69
2022/02/11 14:24:17;;;;;;;1.00;0.70;;;23.80;44.80;;;;;;4992841;28;20072;-68
2022/02/11 14:26:43;;;;;;;1.35;0.82;;;23.70;44.80;;;;;;4996222;28;20033;-69
2022/02/11 14:29:11;;;;;;;0.60;0.60;;;23.70;44.80;;;;;;4992413;28;20022;-69
2022/02/11 14:31:39;;;;;;;1.15;0.60;;;23.70;44.90;;;;;;4990613;28;20042;-66
2022/02/11 14:34:05;;;;;;;0.75;0.70;;;23.70;44.90;;;;;;4991800;28;20034;-69
2022/02/11 14:36:32;;;;;;;1.42;0.63;;;23.60;44.90;;;;;;4992160;28;20403;-69
2022/02/11 14:38:58;;;;;;;0.63;0.60;;;23.60;44.90;;;;;;4993588;28;20156;-67
2022/02/11 14:44:09;;;;;;;1.15;0.77;;;23.60;45.00;;;;;;4992568;28;20083;-66
2022/02/11 14:46:35;;;;;;;0.90;0.60;;;23.50;44.90;;;;;;4990048;28;20487;-68
2022/02/11 14:49:01;;;;;;;1.25;0.63;;;23.50;45.00;;;;;;4993103;28;20027;-69
2022/02/11 14:51:27;;;;;;;1.38;0.50;;;23.50;45.00;;;;;;4993275;28;20034;-68
2022/02/11 14:53:53;;;;;;;1.45;0.60;;;23.50;45.00;;;;;;4991489;28;20034;-69
2022/02/11 14:56:19;;;;;;;1.25;0.60;;;23.50;45.00;;;;;;4992262;28;20034;-69
2022/02/11 14:58:44;;;;;;;0.93;0.50;;;23.50;45.10;;;;;;4990620;28;20045;-69
2022/02/11 15:01:11;;;;;;;1.60;0.60;;;23.40;45.10;;;;;;5004798;28;20037;-69
2022/02/11 15:03:37;;;;;;;0.98;0.60;;;23.40;45.10;;;;;;4993953;28;20045;-67
2022/02/11 15:06:03;;;;;;;0.57;0.52;;;23.40;45.70;;;;;;4994619;28;20477;-69
2022/02/11 15:08:29;;;;;;;1.33;0.80;;;23.40;45.20;;;;;;4992493;28;20120;-66
2022/02/11 15:10:55;;;;;;;0.90;0.50;;;23.40;45.20;;;;;;4993338;28;20029;-69
2022/02/11 15:13:21;;;;;;;1.95;0.60;;;23.30;45.30;;;;;;4991925;28;20045;-69
2022/02/11 15:15:46;;;;;;;1.80;0.60;;;23.30;45.30;;;;;;5007020;28;20061;-68
2022/02/11 15:18:12;;;;;;;1.17;0.70;;;23.30;45.30;;;;;;4991518;28;20033;-69
2022/02/11 15:20:39;;;;;;;3.97;0.68;;;23.30;45.40;;;;;;4992385;28;20497;-66
2022/02/11 15:23:05;;;;;;;0.88;0.60;;;23.20;45.30;;;;;;4992271;28;20587;-69
2022/02/11 15:25:31;;;;;;;0.50;0.50;;;23.20;45.40;;;;;;4993763;28;20040;-68
2022/02/11 15:27:57;;;;;;;2.25;0.60;;;23.20;45.40;;;;;;4992200;28;20112;-69
2022/02/11 15:30:23;;;;;;;0.98;0.60;;;23.20;45.40;;;;;;5006599;28;20106;-69
2022/02/11 15:32:49;;;;;;;0.70;0.52;;;23.20;45.50;;;;;;4992450;28;20045;-68
2022/02/11 15:35:14;;;;;;;1.30;0.50;;;23.20;45.50;;;;;;4993532;28;20034;-69
2022/02/11 15:37:40;;;;;;;0.95;0.57;;;23.10;45.50;;;;;;4992407;28;20141;-69
2022/02/11 15:40:07;;;;;;;0.60;0.40;;;23.10;45.60;;;;;;4992204;28;20034;-69
2022/02/11 15:42:34;;;;;;;1.30;0.70;;;23.10;45.60;;;;;;5006031;28;20029;-69
2022/02/11 15:44:59;;;;;;;0.93;0.60;;;23.10;45.60;;;;;;4989507;28;20041;-69
2022/02/11 15:47:25;;;;;;;0.88;0.60;;;23.10;45.70;;;;;;4990819;28;20026;-69
2022/02/11 15:49:52;;;;;;;1.15;0.60;;;23.10;45.70;;;;;;4993229;28;20146;-69
2022/02/11 15:52:18;;;;;;;0.88;0.55;;;23.00;45.70;;;;;;4991575;28;20111;-65
2022/02/11 15:54:44;;;;;;;1.98;0.60;;;23.00;45.70;;;;;;4989290;28;20452;-69
2022/02/11 15:57:10;;;;;;;0.63;0.50;;;23.00;45.70;;;;;;4991108;28;20034;-69
2022/02/11 15:59:36;;;;;;;0.93;0.50;;;23.00;45.80;;;;;;4994436;28;20627;-68
2022/02/11 16:02:02;;;;;;;2.10;0.80;;;23.00;45.80;;;;;;4990316;28;20038;-69
2022/02/11 16:04:32;;;;;;;1.05;0.60;;;22.90;45.80;;;;;;4992201;28;20097;-69
2022/02/11 16:06:57;;;;;;;;;;;22.90;45.80;;;;;;4992974;28;20022;-69
2022/02/11 16:09:23;;;;;;;1.30;0.63;;;22.90;45.80;;;;;;4992599;28;20380;-69
2022/02/11 16:11:49;;;;;;;0.60;0.50;;;22.90;45.80;;;;;;4993505;28;20037;-69
2022/02/11 16:14:16;;;;;;;0.90;0.50;;;22.90;45.90;;;;;;4991027;28;20659;-68
2022/02/11 16:16:43;;;;;;;0.75;0.55;;;22.90;45.90;;;;;;4991937;28;20498;-69
2022/02/11 16:19:09;;;;;;;0.40;0.40;;;22.90;45.90;;;;;;4991304;28;20118;-68
2022/02/11 16:21:35;;;;;;;0.82;0.50;;;22.90;46.50;;;;;;5007077;28;20113;-67
2022/02/11 16:24:00;;;;;;;0.70;0.50;;;22.80;45.90;;;;;;4991158;28;20487;-69
2022/02/11 16:26:26;;;;;;;1.25;0.60;;;22.80;45.90;;;;;;4991858;28;20041;-69
2022/02/11 16:28:52;;;;;;;0.60;0.47;;;22.80;46.00;;;;;;4990852;28;20029;-69
2022/02/11 16:31:21;;;;;;;0.65;0.50;;;22.80;46.00;;;;;;4990429;28;20466;-70
2022/02/11 16:33:48;;;;;;;0.93;0.52;;;22.80;46.00;;;;;;4989685;28;20360;-69
2022/02/11 16:36:14;;;;;;;0.57;0.40;;;22.80;46.10;;;;;;4991920;28;20041;-67
2022/02/11 16:38:42;;;;;;;0.80;0.50;;;22.80;46.20;;;;;;4991652;28;20084;-67
2022/02/11 16:41:08;;;;;;;0.65;0.40;;;22.70;46.00;;;;;;4993911;28;20066;-69
2022/02/11 16:43:34;;;;;;;0.82;0.60;;;22.70;46.10;;;;;;4995277;28;20424;-66
2022/02/11 16:46:00;;;;;;;0.50;0.50;;;22.70;46.10;;;;;;4993339;28;20032;-69